aviador You're here:

KVTI Decoded Metar

VINTON in IA, USA
Report Time2017-04-25 06:35:00
UTC Time2017-04-25 06:38:51
Flight Rules vfr VFR
Wind160° at 08 kt
W.Decomp.*RWY 16: 8.0 kt HW 0.1 kt LCW
RWY 09: 2.9 kt HW 7.5 kt RCW
W.Rank160° ranks 2
Current wind is below 160° avg. (8.1)
Visibility9999 m
Phenomena:N/A
Clouds:N/A
Expected CloudBase > 6,000 ft AGL from Temp-Dew spread
CeilingNone
Temp14°C (ISA +1)
Dew Point-1°C (36% RH)
AAT9.0°C
QNH1003 hPa
Density Alt1,335 ft
Elevation837 ft
Report Wrong Elevation
Raw Report
KVTI 250635Z AUTO 16008KT 10SM CLR 14/M01 A2961 RMK AO2=

Extra information for KVTI:More info

Metar Taf Metar & Taf Last 4 Metars F.Rules Stats Wind Profile Meteogram Temp Stats Airport Information Weather charts Add Link Nearby VenuesMetar ALERT Operation Metar Decoded Social comments

AIRNAV info for KVTI